createdAt,value
2018-04-17T00:01:04.322Z,10.30
2018-04-17T00:03:30.665Z,10.20
2018-04-17T00:05:56.903Z,10.20
2018-04-17T00:08:23.895Z,10.20
2018-04-17T00:10:50.167Z,10.20
2018-04-17T00:13:17.185Z,10.30
2018-04-17T00:15:43.522Z,10.30
2018-04-17T00:18:09.762Z,10.30
2018-04-17T00:20:36.059Z,10.40
2018-04-17T00:23:02.306Z,10.30
2018-04-17T00:25:28.570Z,10.20
2018-04-17T00:27:54.811Z,10.20
2018-04-17T00:30:21.075Z,10.20
2018-04-17T00:32:47.851Z,10.20
2018-04-17T00:35:14.202Z,10.20
2018-04-17T00:37:40.443Z,10.20
2018-04-17T00:40:06.738Z,10.10
2018-04-17T00:42:32.988Z,10.10
2018-04-17T00:44:59.255Z,10.00
2018-04-17T00:47:26.247Z,10.00
2018-04-17T00:49:52.515Z,9.90
2018-04-17T00:52:18.754Z,9.90
2018-04-17T00:54:46.067Z,9.80
2018-04-17T00:57:12.314Z,9.80
2018-04-17T00:59:39.471Z,9.80
2018-04-17T01:02:05.751Z,9.80
2018-04-17T01:04:32.694Z,9.80
2018-04-17T01:06:59.483Z,9.70
2018-04-17T01:09:26.226Z,9.70
2018-04-17T01:11:54.098Z,9.60
2018-04-17T01:14:21.449Z,9.50
2018-04-17T01:16:48.598Z,9.50
2018-04-17T01:19:15.442Z,9.50
2018-04-17T01:21:41.750Z,9.50
2018-04-17T01:24:08.107Z,9.50
2018-04-17T01:26:35.344Z,9.50
2018-04-17T01:29:01.595Z,9.50
2018-04-17T01:31:29.103Z,9.40
2018-04-17T01:33:55.343Z,9.30
2018-04-17T01:36:21.602Z,9.40
2018-04-17T01:38:47.846Z,9.40
2018-04-17T01:41:14.530Z,9.40
2018-04-17T01:43:40.805Z,9.40
2018-04-17T01:46:07.558Z,9.50
2018-04-17T01:48:33.802Z,9.50
2018-04-17T01:51:01.061Z,9.50
2018-04-17T01:53:28.070Z,9.60
2018-04-17T01:55:54.342Z,9.60
2018-04-17T01:58:21.326Z,9.60
2018-04-17T02:00:48.219Z,9.60
2018-04-17T02:03:15.214Z,9.60
2018-04-17T02:05:41.550Z,9.60
2018-04-17T02:08:07.849Z,9.60
2018-04-17T02:10:35.789Z,9.60
2018-04-17T02:13:02.034Z,9.50
2018-04-17T02:15:30.500Z,9.60
2018-04-17T02:17:56.751Z,9.60
2018-04-17T02:20:23.834Z,9.60
2018-04-17T02:22:50.099Z,9.60
2018-04-17T02:25:16.918Z,9.50
2018-04-17T02:27:43.165Z,9.50
2018-04-17T02:30:16.983Z,9.50
2018-04-17T02:32:43.226Z,9.40
2018-04-17T02:35:09.475Z,9.40
2018-04-17T02:37:36.487Z,9.30
2018-04-17T02:40:02.757Z,9.30
2018-04-17T02:42:29.031Z,9.30
2018-04-17T02:44:55.275Z,9.30
2018-04-17T02:47:21.552Z,9.30
2018-04-17T02:49:47.794Z,9.30
2018-04-17T02:52:14.070Z,9.30
2018-04-17T02:54:41.795Z,9.20
2018-04-17T02:57:08.071Z,9.20
2018-04-17T02:59:34.315Z,9.20
2018-04-17T03:02:01.345Z,9.10
2018-04-17T03:04:27.638Z,9.10
2018-04-17T03:06:54.465Z,9.00
2018-04-17T03:09:20.707Z,9.00
2018-04-17T03:11:47.928Z,8.90
2018-04-17T03:14:14.940Z,8.80
2018-04-17T03:16:48.639Z,8.80
2018-04-17T03:19:14.886Z,8.80
2018-04-17T03:21:41.179Z,8.80
2018-04-17T03:24:07.427Z,8.80
2018-04-17T03:26:33.695Z,8.80
2018-04-17T03:29:00.787Z,8.80
2018-04-17T03:31:27.062Z,8.80
2018-04-17T03:33:53.862Z,8.80
2018-04-17T03:36:21.079Z,8.80
2018-04-17T03:38:47.331Z,8.80
2018-04-17T03:41:13.600Z,8.80
2018-04-17T03:43:39.838Z,8.80
2018-04-17T03:46:06.847Z,8.80
2018-04-17T03:48:33.086Z,8.80
2018-04-17T03:50:59.358Z,8.80
2018-04-17T03:53:26.342Z,8.80
2018-04-17T03:55:52.620Z,8.80
2018-04-17T03:58:19.810Z,8.80
2018-04-17T04:00:46.100Z,8.80
2018-04-17T04:03:12.343Z,8.80
2018-04-17T04:05:39.354Z,8.90
2018-04-17T04:08:05.604Z,8.90
2018-04-17T04:10:31.898Z,8.90
2018-04-17T04:12:58.158Z,8.90
2018-04-17T04:15:25.203Z,8.90
2018-04-17T04:18:04.007Z,8.90
2018-04-17T04:20:42.663Z,8.90
2018-04-17T04:23:21.297Z,8.90
2018-04-17T04:26:00.915Z,8.80
2018-04-17T04:28:27.747Z,8.80
2018-04-17T04:30:54.034Z,8.80
2018-04-17T04:33:20.626Z,8.70
2018-04-17T04:35:46.961Z,8.70
2018-04-17T04:38:13.289Z,8.70
2018-04-17T04:40:39.554Z,8.70
2018-04-17T04:43:06.538Z,8.60
2018-04-17T04:45:33.502Z,8.60
2018-04-17T04:47:59.742Z,8.70
2018-04-17T04:50:26.010Z,8.80
2018-04-17T04:52:52.993Z,8.90
2018-04-17T04:55:19.239Z,8.90
2018-04-17T04:57:45.563Z,9.00
2018-04-17T05:00:11.791Z,9.10
2018-04-17T05:02:38.647Z,9.20
2018-04-17T05:05:05.670Z,9.30
2018-04-17T05:07:31.913Z,9.50
2018-04-17T05:09:58.262Z,9.60
2018-04-17T05:12:24.579Z,9.70
2018-04-17T05:14:50.851Z,9.80
2018-04-17T05:17:17.847Z,9.90
2018-04-17T05:19:44.186Z,9.90
2018-04-17T05:22:10.454Z,10.00
2018-04-17T05:24:37.519Z,10.10
2018-04-17T05:27:03.768Z,10.10
2018-04-17T05:29:30.010Z,10.30
2018-04-17T05:31:56.834Z,10.40
2018-04-17T05:34:23.078Z,10.50
2018-04-17T05:36:49.350Z,10.60
2018-04-17T05:39:15.590Z,10.70
2018-04-17T05:41:42.617Z,10.80
2018-04-17T05:44:08.862Z,10.80
2018-04-17T05:46:35.125Z,10.90
2018-04-17T05:49:01.366Z,11.10
2018-04-17T05:51:27.593Z,11.20
2018-04-17T05:53:53.791Z,11.40
2018-04-17T05:56:20.752Z,12.00
2018-04-17T05:58:47.705Z,12.30
2018-04-17T06:01:13.935Z,12.30
2018-04-17T06:03:40.195Z,12.60
2018-04-17T06:06:06.465Z,12.80
2018-04-17T06:08:33.399Z,13.30
2018-04-17T06:10:59.615Z,13.30
2018-04-17T06:13:25.807Z,13.70
2018-04-17T06:15:52.027Z,14.00
2018-04-17T06:18:18.222Z,14.50
2018-04-17T06:20:44.483Z,14.90
2018-04-17T06:23:10.703Z,15.30
2018-04-17T06:25:37.631Z,16.20
2018-04-17T06:28:03.848Z,16.20
2018-04-17T06:30:30.043Z,16.70
2018-04-17T06:32:56.250Z,17.20
2018-04-17T06:35:22.450Z,17.70
2018-04-17T06:37:49.427Z,18.60
2018-04-17T06:40:15.611Z,18.60
2018-04-17T06:42:41.826Z,19.00
2018-04-17T06:45:08.028Z,19.40
2018-04-17T06:47:34.294Z,19.70
2018-04-17T06:50:00.492Z,20.20
2018-04-17T06:52:26.691Z,20.80
2018-04-17T06:54:52.891Z,21.20
2018-04-17T06:57:19.131Z,21.60
2018-04-17T06:59:46.067Z,22.40
2018-04-17T07:02:12.313Z,22.40
2018-04-17T07:04:39.260Z,22.90
2018-04-17T07:07:06.191Z,23.20
2018-04-17T07:09:32.447Z,23.20
2018-04-17T07:11:58.639Z,23.70
2018-04-17T07:14:25.610Z,23.80
2018-04-17T07:16:52.551Z,23.70
2018-04-17T07:19:19.555Z,23.70
2018-04-17T07:21:45.747Z,23.70
2018-04-17T07:24:11.976Z,23.60
2018-04-17T07:26:38.162Z,24.00
2018-04-17T07:29:04.476Z,24.30
2018-04-17T07:31:30.672Z,24.50
2018-04-17T07:33:56.899Z,24.60
2018-04-17T07:36:23.111Z,24.70
2018-04-17T07:38:50.043Z,25.80
2018-04-17T07:41:17.014Z,26.40
2018-04-17T07:43:43.203Z,26.30
2018-04-17T07:46:09.415Z,26.40
2018-04-17T07:48:47.824Z,26.30
2018-04-17T07:51:14.111Z,27.00
2018-04-17T07:53:40.307Z,27.30
2018-04-17T07:56:06.523Z,26.80
2018-04-17T07:58:32.712Z,27.00
2018-04-17T08:00:58.927Z,27.00
2018-04-17T08:03:25.119Z,26.70
2018-04-17T08:05:51.333Z,27.10
2018-04-17T08:08:17.530Z,27.70
2018-04-17T08:10:43.771Z,27.50
2018-04-17T08:13:09.963Z,27.70
2018-04-17T08:15:36.918Z,28.30
2018-04-17T08:18:03.148Z,28.30
2018-04-17T08:20:29.383Z,28.10
2018-04-17T08:22:55.579Z,28.40
2018-04-17T08:25:22.551Z,28.80
2018-04-17T08:27:48.740Z,28.80
2018-04-17T08:30:14.960Z,29.80
2018-04-17T08:32:41.156Z,30.00
2018-04-17T08:35:07.376Z,28.70
2018-04-17T08:37:33.571Z,29.50
2018-04-17T08:40:00.723Z,30.10
2018-04-17T08:42:27.660Z,29.70
2018-04-17T08:44:53.846Z,29.80
2018-04-17T08:47:20.068Z,29.90
2018-04-17T08:49:46.258Z,29.70
2018-04-17T08:52:13.214Z,29.80
2018-04-17T08:54:39.407Z,29.80
2018-04-17T08:57:05.628Z,30.10
2018-04-17T08:59:31.829Z,30.60
2018-04-17T09:01:58.066Z,30.60
2018-04-17T09:04:24.314Z,31.10
2018-04-17T09:06:50.530Z,30.20
2018-04-17T09:09:17.057Z,29.70
2018-04-17T09:11:43.282Z,29.30
2018-04-17T09:14:09.475Z,29.90
2018-04-17T09:16:35.686Z,30.00
2018-04-17T09:19:02.203Z,30.10
2018-04-17T09:21:28.430Z,30.20
2018-04-17T09:23:54.642Z,30.10
2018-04-17T09:26:20.868Z,29.80
2018-04-17T09:28:47.062Z,30.10
2018-04-17T09:31:13.299Z,30.40
2018-04-17T09:33:39.487Z,30.40
2018-04-17T09:36:05.766Z,31.10
2018-04-17T09:38:32.659Z,31.10
2018-04-17T09:41:00.612Z,31.80
2018-04-17T09:43:26.794Z,31.80
2018-04-17T09:45:52.987Z,32.40
2018-04-17T09:48:19.201Z,32.30
2018-04-17T09:50:45.399Z,32.20
2018-04-17T09:53:11.615Z,32.50
2018-04-17T09:55:37.830Z,33.10
2018-04-17T09:58:04.050Z,34.20
2018-04-17T10:00:36.982Z,34.60
2018-04-17T10:03:03.511Z,34.50
2018-04-17T10:05:29.698Z,33.90
2018-04-17T10:07:56.651Z,34.10
2018-04-17T10:10:23.587Z,33.60
2018-04-17T10:12:50.559Z,32.10
2018-04-17T10:15:16.747Z,32.10
2018-04-17T10:17:44.444Z,31.70
2018-04-17T10:20:10.659Z,31.70
2018-04-17T10:22:37.658Z,30.40
2018-04-17T10:25:03.850Z,30.40
2018-04-17T10:27:30.079Z,30.40
2018-04-17T10:29:56.272Z,31.10
2018-04-17T10:32:22.782Z,31.70
2018-04-17T10:34:48.966Z,32.00
2018-04-17T10:37:15.939Z,32.50
2018-04-17T10:39:42.157Z,32.50
2018-04-17T10:42:08.416Z,32.60
2018-04-17T10:44:34.616Z,33.30
2018-04-17T10:47:00.858Z,32.60
2018-04-17T10:49:27.051Z,32.20
2018-04-17T10:51:54.015Z,32.50
2018-04-17T10:54:20.204Z,32.50
2018-04-17T10:56:46.427Z,33.20
2018-04-17T10:59:12.619Z,33.20
2018-04-17T11:01:38.879Z,33.80
2018-04-17T11:04:05.119Z,33.60
2018-04-17T11:06:31.299Z,32.40
2018-04-17T11:08:57.515Z,31.80
2018-04-17T11:11:23.710Z,32.50
2018-04-17T11:13:49.943Z,33.30
2018-04-17T11:16:16.876Z,31.80
2018-04-17T11:18:43.855Z,32.20
2018-04-17T11:21:10.813Z,31.70
2018-04-17T11:23:37.043Z,31.70
2018-04-17T11:26:03.234Z,31.00
2018-04-17T11:28:29.510Z,31.10
2018-04-17T11:30:55.699Z,30.50
2018-04-17T11:33:22.655Z,29.60
2018-04-17T11:35:49.586Z,30.80
2018-04-17T11:38:15.815Z,30.80
2018-04-17T11:40:42.760Z,30.80
2018-04-17T11:43:09.731Z,31.20
2018-04-17T11:45:35.918Z,31.10
2018-04-17T11:48:02.136Z,31.50
2018-04-17T11:50:28.327Z,31.30
2018-04-17T11:52:54.548Z,31.40
2018-04-17T11:55:20.740Z,31.30
2018-04-17T11:57:46.954Z,30.80
2018-04-17T12:00:13.150Z,30.50
2018-04-17T12:02:39.354Z,28.50
2018-04-17T12:05:06.315Z,29.10
2018-04-17T12:07:32.534Z,29.10
2018-04-17T12:09:58.732Z,29.40
2018-04-17T12:12:24.947Z,29.30
2018-04-17T12:14:51.134Z,29.40
2018-04-17T12:17:17.364Z,29.70
2018-04-17T12:19:43.636Z,30.30
2018-04-17T12:22:09.831Z,29.70
2018-04-17T12:24:36.034Z,29.10
2018-04-17T12:27:02.223Z,28.90
2018-04-17T12:29:28.434Z,29.20
2018-04-17T12:31:54.642Z,29.60
2018-04-17T12:34:20.855Z,30.70
2018-04-17T12:36:47.042Z,30.80
2018-04-17T12:39:13.255Z,29.70
2018-04-17T12:41:39.448Z,29.30
2018-04-17T12:44:05.659Z,29.00
2018-04-17T12:46:31.858Z,29.60
2018-04-17T12:48:58.066Z,31.00
2018-04-17T12:51:24.255Z,31.20
2018-04-17T12:53:50.463Z,30.80
2018-04-17T12:56:17.448Z,31.10
2018-04-17T12:58:43.666Z,31.00
2018-04-17T13:01:09.855Z,31.30
2018-04-17T13:03:36.818Z,30.20
2018-04-17T13:06:03.742Z,29.60
2018-04-17T13:08:29.931Z,29.60
2018-04-17T13:10:56.147Z,29.00
2018-04-17T13:13:22.339Z,29.40
2018-04-17T13:15:49.326Z,29.70
2018-04-17T13:18:15.523Z,29.70
2018-04-17T13:20:42.507Z,29.70
2018-04-17T13:23:08.691Z,29.70
2018-04-17T13:25:35.647Z,29.50
2018-04-17T13:28:02.575Z,30.00
2018-04-17T13:30:28.787Z,30.00
2018-04-17T13:32:54.979Z,29.60
2018-04-17T13:35:21.185Z,29.20
2018-04-17T13:37:47.378Z,28.90
2018-04-17T13:40:14.339Z,28.20
2018-04-17T13:42:41.291Z,28.20
2018-04-17T13:45:08.247Z,28.50
2018-04-17T13:47:35.180Z,28.10
2018-04-17T13:50:02.145Z,27.30
2018-04-17T13:52:28.339Z,27.30
2018-04-17T13:54:54.556Z,27.80
2018-04-17T13:57:20.807Z,28.20
2018-04-17T13:59:47.018Z,28.20
2018-04-17T14:02:13.207Z,28.70
2018-04-17T14:04:39.420Z,28.80
2018-04-17T14:07:05.619Z,29.30
2018-04-17T14:09:32.027Z,29.40
2018-04-17T14:11:58.219Z,29.30
2018-04-17T14:14:24.411Z,28.60
2018-04-17T14:16:51.371Z,28.00
2018-04-17T14:19:18.307Z,28.20
2018-04-17T14:21:45.283Z,28.10
2018-04-17T14:24:11.503Z,28.10
2018-04-17T14:26:37.715Z,28.40
2018-04-17T14:29:04.655Z,28.00
2018-04-17T14:31:31.631Z,27.40
2018-04-17T14:33:57.828Z,27.30
2018-04-17T14:36:24.779Z,28.10
2018-04-17T14:38:51.714Z,27.70
2018-04-17T14:41:18.690Z,27.30
2018-04-17T14:43:44.882Z,27.30
2018-04-17T14:46:11.087Z,27.60
2018-04-17T14:48:37.298Z,28.00
2018-04-17T14:51:03.517Z,27.80
2018-04-17T14:53:29.698Z,27.30
2018-04-17T14:55:56.012Z,27.00
2018-04-17T14:58:22.267Z,27.30
2018-04-17T15:00:48.903Z,27.40
2018-04-17T15:03:15.095Z,27.30
2018-04-17T15:05:41.298Z,26.60
2018-04-17T15:08:07.507Z,25.70
2018-04-17T15:10:34.443Z,26.00
2018-04-17T15:13:01.399Z,25.80
2018-04-17T15:15:28.329Z,26.40
2018-04-17T15:17:54.547Z,26.40
2018-04-17T15:20:20.756Z,26.10
2018-04-17T15:22:46.966Z,26.10
2018-04-17T15:25:13.155Z,26.50
2018-04-17T15:27:40.108Z,26.70
2018-04-17T15:30:07.104Z,25.80
2018-04-17T15:32:33.324Z,25.80
2018-04-17T15:34:59.523Z,25.40
2018-04-17T15:37:25.737Z,24.90
2018-04-17T15:39:52.666Z,24.80
2018-04-17T15:42:18.879Z,24.80
2018-04-17T15:44:45.066Z,24.50
2018-04-17T15:47:11.283Z,24.30
2018-04-17T15:49:37.899Z,24.50
2018-04-17T15:52:04.858Z,25.10
2018-04-17T15:54:31.791Z,25.60
2018-04-17T15:56:58.746Z,25.70
2018-04-17T15:59:25.763Z,24.70
2018-04-17T16:01:52.184Z,24.70
2018-04-17T16:04:18.377Z,24.00
2018-04-17T16:06:44.582Z,23.80
2018-04-17T16:09:11.549Z,23.30
2018-04-17T16:11:37.760Z,23.30
2018-04-17T16:14:04.719Z,23.40
2018-04-17T16:16:38.083Z,23.40
2018-04-17T16:19:05.049Z,23.20
2018-04-17T16:21:32.011Z,22.80
2018-04-17T16:23:58.231Z,22.70
2018-04-17T16:26:24.428Z,22.60
2018-04-17T16:28:50.639Z,22.60
2018-04-17T16:31:16.830Z,22.70
2018-04-17T16:33:43.047Z,22.50
2018-04-17T16:36:09.303Z,22.60
2018-04-17T16:38:35.524Z,22.70
2018-04-17T16:41:01.728Z,22.80
2018-04-17T16:43:27.942Z,22.60
2018-04-17T16:45:54.878Z,21.90
2018-04-17T16:48:21.104Z,21.90
2018-04-17T16:50:47.298Z,21.70
2018-04-17T16:53:13.515Z,21.40
2018-04-17T16:55:39.698Z,21.20
2018-04-17T16:58:06.811Z,20.70
2018-04-17T17:00:33.007Z,20.60
2018-04-17T17:02:59.191Z,20.40
2018-04-17T17:05:25.405Z,20.00
2018-04-17T17:07:51.594Z,19.70
2018-04-17T17:10:17.833Z,19.40
2018-04-17T17:12:44.026Z,19.20
2018-04-17T17:15:10.978Z,18.80
2018-04-17T17:17:37.907Z,18.60
2018-04-17T17:20:04.175Z,18.60
2018-04-17T17:22:30.364Z,18.50
2018-04-17T17:24:56.642Z,18.40
2018-04-17T17:27:22.855Z,18.30
2018-04-17T17:29:49.106Z,18.30
2018-04-17T17:32:15.298Z,18.10
2018-04-17T17:34:41.519Z,18.10
2018-04-17T17:37:08.451Z,17.90
2018-04-17T17:39:34.661Z,17.80
2018-04-17T17:42:00.851Z,17.70
2018-04-17T17:44:27.062Z,17.60
2018-04-17T17:46:54.014Z,17.50
2018-04-17T17:49:20.242Z,17.50
2018-04-17T17:51:46.462Z,17.40
2018-04-17T17:54:13.807Z,17.20
2018-04-17T17:56:40.763Z,17.20
2018-04-17T17:59:07.776Z,17.00
2018-04-17T18:01:33.983Z,17.00
2018-04-17T18:04:00.190Z,16.90
2018-04-17T18:06:26.412Z,16.80
2018-04-17T18:08:52.623Z,16.70
2018-04-17T18:11:19.579Z,16.40
2018-04-17T18:13:45.766Z,16.40
2018-04-17T18:16:12.723Z,16.20
2018-04-17T18:18:38.983Z,16.10
2018-04-17T18:21:05.222Z,15.90
2018-04-17T18:23:31.440Z,15.70
2018-04-17T18:25:57.659Z,15.50
2018-04-17T18:28:24.591Z,15.20
2018-04-17T18:30:50.806Z,15.10
2018-04-17T18:33:18.470Z,14.90
2018-04-17T18:35:46.167Z,14.90
2018-04-17T18:38:12.362Z,14.90
2018-04-17T18:40:40.065Z,14.70
2018-04-17T18:43:06.248Z,14.70
2018-04-17T18:45:32.468Z,14.70
2018-04-17T18:47:58.658Z,14.60
2018-04-17T18:50:24.875Z,14.60
2018-04-17T18:52:51.806Z,14.50
2018-04-17T18:55:19.102Z,14.30
2018-04-17T18:57:45.287Z,14.30
2018-04-17T19:00:12.344Z,14.20
2018-04-17T19:02:39.306Z,14.20
2018-04-17T19:05:05.519Z,14.20
2018-04-17T19:07:32.479Z,14.10
2018-04-17T19:09:58.672Z,14.10
2018-04-17T19:12:24.895Z,14.00
2018-04-17T19:14:52.561Z,13.80
2018-04-17T19:17:19.518Z,13.80
2018-04-17T19:19:46.474Z,13.70
2018-04-17T19:22:13.459Z,13.70
2018-04-17T19:24:39.686Z,13.60
2018-04-17T19:27:05.896Z,13.60
2018-04-17T19:29:32.087Z,13.50
2018-04-17T19:31:58.295Z,13.50
2018-04-17T19:34:24.491Z,13.40
2018-04-17T19:36:50.707Z,13.30
2018-04-17T19:39:16.903Z,13.30
2018-04-17T19:41:43.935Z,13.20
2018-04-17T19:44:10.126Z,13.20
2018-04-17T19:46:36.353Z,13.10
2018-04-17T19:49:02.539Z,13.10
2018-04-17T19:51:29.495Z,13.10
2018-04-17T19:53:56.843Z,13.00
2018-04-17T19:56:23.801Z,13.00
2018-04-17T19:58:50.743Z,13.00
2018-04-17T20:01:17.702Z,13.00
2018-04-17T20:03:43.899Z,13.00
2018-04-17T20:06:10.315Z,13.00
2018-04-17T20:08:36.503Z,13.00
2018-04-17T20:11:02.690Z,13.00
2018-04-17T20:13:28.899Z,13.10
2018-04-17T20:15:55.086Z,13.10
2018-04-17T20:18:21.303Z,13.10
2018-04-17T20:20:48.260Z,13.00
2018-04-17T20:23:14.535Z,13.00
2018-04-17T20:25:40.727Z,13.00
2018-04-17T20:28:06.955Z,13.00
2018-04-17T20:30:33.142Z,13.10
2018-04-17T20:33:00.103Z,13.00
2018-04-17T20:35:27.064Z,13.00
2018-04-17T20:37:53.279Z,13.00
2018-04-17T20:40:20.203Z,13.00
2018-04-17T20:42:47.899Z,13.00
2018-04-17T20:45:14.110Z,12.90
2018-04-17T20:47:41.068Z,12.90
2018-04-17T20:50:08.023Z,12.90
2018-04-17T20:52:34.242Z,12.90
2018-04-17T20:55:01.267Z,12.90
2018-04-17T20:57:28.226Z,12.80
2018-04-17T20:59:55.171Z,12.80
2018-04-17T21:02:22.123Z,12.80
2018-04-17T21:04:49.063Z,12.80
2018-04-17T21:07:16.010Z,12.80
2018-04-17T21:09:42.946Z,12.80
2018-04-17T21:12:09.163Z,12.70
2018-04-17T21:14:35.354Z,12.70
2018-04-17T21:17:01.614Z,12.70
2018-04-17T21:19:27.891Z,12.60
2018-04-17T21:21:54.123Z,12.60
2018-04-17T21:24:20.350Z,12.60
2018-04-17T21:26:46.555Z,12.60
2018-04-17T21:29:12.766Z,12.60
2018-04-17T21:31:38.963Z,12.60
2018-04-17T21:34:05.199Z,12.60
2018-04-17T21:36:31.393Z,12.60
2018-04-17T21:38:57.623Z,12.50
2018-04-17T21:41:24.556Z,12.60
2018-04-17T21:43:51.511Z,12.50
2018-04-17T21:46:18.443Z,12.50
2018-04-17T21:48:45.403Z,12.50
2018-04-17T21:51:11.594Z,12.50
2018-04-17T21:53:38.552Z,12.50
2018-04-17T21:56:05.486Z,12.50
2018-04-17T21:58:31.719Z,12.50
2018-04-17T22:00:57.910Z,12.50
2018-04-17T22:03:24.135Z,12.50
2018-04-17T22:05:50.322Z,12.50
2018-04-17T22:08:17.335Z,12.50
2018-04-17T22:10:43.543Z,12.50
2018-04-17T22:13:09.790Z,12.50
2018-04-17T22:15:35.983Z,12.50
2018-04-17T22:18:02.191Z,12.50
2018-04-17T22:20:29.152Z,12.60
2018-04-17T22:22:55.395Z,12.50
2018-04-17T22:25:21.631Z,12.60
2018-04-17T22:27:47.866Z,12.60
2018-04-17T22:30:14.080Z,12.60
2018-04-17T22:32:40.298Z,12.60
2018-04-17T22:35:06.496Z,12.60
2018-04-17T22:37:33.479Z,12.60
2018-04-17T22:39:59.692Z,12.50
2018-04-17T22:42:26.699Z,12.50
2018-04-17T22:44:52.906Z,12.50
2018-04-17T22:47:19.110Z,12.50
2018-04-17T22:49:45.345Z,12.50
2018-04-17T22:52:11.560Z,12.50
2018-04-17T22:54:37.852Z,12.50
2018-04-17T22:57:04.036Z,12.40
2018-04-17T22:59:30.332Z,12.50
2018-04-17T23:01:57.760Z,12.50
2018-04-17T23:04:23.971Z,12.50
2018-04-17T23:06:50.164Z,12.50
2018-04-17T23:09:16.387Z,12.60
2018-04-17T23:11:43.322Z,12.50
2018-04-17T23:14:10.275Z,12.60
2018-04-17T23:16:37.210Z,12.60
2018-04-17T23:19:04.166Z,12.60
2018-04-17T23:21:31.130Z,12.60
2018-04-17T23:23:57.347Z,12.60
2018-04-17T23:26:23.543Z,12.60
2018-04-17T23:28:49.795Z,12.60
2018-04-17T23:31:16.754Z,12.50
2018-04-17T23:33:43.366Z,12.40
2018-04-17T23:36:10.305Z,12.40
2018-04-17T23:38:37.974Z,12.40
2018-04-17T23:41:04.190Z,12.40
2018-04-17T23:43:30.423Z,12.40
2018-04-17T23:45:56.615Z,12.30
2018-04-17T23:48:22.842Z,12.30
2018-04-17T23:50:49.031Z,12.30
2018-04-17T23:53:15.963Z,12.30
2018-04-17T23:55:42.914Z,12.20
2018-04-17T23:58:09.111Z,12.20
